sensor_id;sensor_type;location;lat;lon;timestamp;P1;durP1;ratioP1;P2;durP2;ratioP2
62788;SDS011;66401;42.016;21.454;2023-04-29T00:02:03;12.70;;;7.13;;
62788;SDS011;66401;42.016;21.454;2023-04-29T00:04:30;13.07;;;7.30;;
62788;SDS011;66401;42.016;21.454;2023-04-29T00:06:56;16.87;;;7.63;;
62788;SDS011;66401;42.016;21.454;2023-04-29T00:09:21;13.93;;;6.97;;
62788;SDS011;66401;42.016;21.454;2023-04-29T00:11:47;11.07;;;7.17;;
62788;SDS011;66401;42.016;21.454;2023-04-29T00:14:14;11.70;;;6.27;;
62788;SDS011;66401;42.016;21.454;2023-04-29T00:16:40;15.33;;;7.50;;
62788;SDS011;66401;42.016;21.454;2023-04-29T00:19:05;14.33;;;7.33;;
62788;SDS011;66401;42.016;21.454;2023-04-29T00:21:31;12.50;;;7.90;;
62788;SDS011;66401;42.016;21.454;2023-04-29T00:23:57;11.00;;;6.63;;
62788;SDS011;66401;42.016;21.454;2023-04-29T00:26:23;13.50;;;7.10;;
62788;SDS011;66401;42.016;21.454;2023-04-29T00:28:48;13.03;;;6.73;;
62788;SDS011;66401;42.016;21.454;2023-04-29T00:31:14;12.50;;;6.83;;
62788;SDS011;66401;42.016;21.454;2023-04-29T00:33:39;11.73;;;7.17;;
62788;SDS011;66401;42.016;21.454;2023-04-29T00:36:05;11.20;;;6.83;;
62788;SDS011;66401;42.016;21.454;2023-04-29T00:38:31;15.60;;;7.53;;
62788;SDS011;66401;42.016;21.454;2023-04-29T00:40:56;11.37;;;6.17;;
62788;SDS011;66401;42.016;21.454;2023-04-29T00:43:22;11.80;;;6.63;;
62788;SDS011;66401;42.016;21.454;2023-04-29T00:45:48;10.50;;;6.33;;
62788;SDS011;66401;42.016;21.454;2023-04-29T00:48:14;10.97;;;6.50;;
62788;SDS011;66401;42.016;21.454;2023-04-29T00:50:40;10.27;;;5.97;;
62788;SDS011;66401;42.016;21.454;2023-04-29T00:53:06;10.20;;;6.47;;
62788;SDS011;66401;42.016;21.454;2023-04-29T00:55:32;12.60;;;6.37;;
62788;SDS011;66401;42.016;21.454;2023-04-29T00:57:59;10.10;;;6.70;;
62788;SDS011;66401;42.016;21.454;2023-04-29T01:00:27;12.80;;;7.07;;
62788;SDS011;66401;42.016;21.454;2023-04-29T01:02:53;15.90;;;6.83;;
62788;SDS011;66401;42.016;21.454;2023-04-29T01:05:21;17.00;;;7.00;;
62788;SDS011;66401;42.016;21.454;2023-04-29T01:10:25;8.43;;;6.10;;
62788;SDS011;66401;42.016;21.454;2023-04-29T01:16:07;7.83;;;6.17;;
62788;SDS011;66401;42.016;21.454;2023-04-29T01:18:48;12.57;;;6.07;;
62788;SDS011;66401;42.016;21.454;2023-04-29T01:21:18;10.20;;;6.93;;
62788;SDS011;66401;42.016;21.454;2023-04-29T01:23:44;8.63;;;6.33;;
62788;SDS011;66401;42.016;21.454;2023-04-29T01:26:09;11.50;;;7.43;;
62788;SDS011;66401;42.016;21.454;2023-04-29T01:28:56;10.07;;;7.53;;
62788;SDS011;66401;42.016;21.454;2023-04-29T01:32:03;9.30;;;6.57;;
62788;SDS011;66401;42.016;21.454;2023-04-29T01:37:09;8.63;;;5.40;;
62788;SDS011;66401;42.016;21.454;2023-04-29T01:40:25;9.70;;;5.60;;
62788;SDS011;66401;42.016;21.454;2023-04-29T01:45:04;10.27;;;5.93;;
62788;SDS011;66401;42.016;21.454;2023-04-29T01:47:32;6.80;;;5.50;;
62788;SDS011;66401;42.016;21.454;2023-04-29T01:49:58;6.70;;;5.17;;
62788;SDS011;66401;42.016;21.454;2023-04-29T01:52:23;10.37;;;5.77;;
62788;SDS011;66401;42.016;21.454;2023-04-29T01:54:49;7.77;;;5.33;;
62788;SDS011;66401;42.016;21.454;2023-04-29T01:57:14;9.07;;;5.80;;
62788;SDS011;66401;42.016;21.454;2023-04-29T01:59:41;10.03;;;6.13;;
62788;SDS011;66401;42.016;21.454;2023-04-29T02:02:06;8.20;;;5.60;;
62788;SDS011;66401;42.016;21.454;2023-04-29T02:04:34;9.20;;;5.70;;
62788;SDS011;66401;42.016;21.454;2023-04-29T02:06:59;7.37;;;4.73;;
62788;SDS011;66401;42.016;21.454;2023-04-29T02:09:25;6.87;;;4.83;;
62788;SDS011;66401;42.016;21.454;2023-04-29T02:11:51;4.70;;;4.30;;
62788;SDS011;66401;42.016;21.454;2023-04-29T02:14:19;8.07;;;4.53;;
62788;SDS011;66401;42.016;21.454;2023-04-29T02:16:45;9.40;;;4.00;;
62788;SDS011;66401;42.016;21.454;2023-04-29T02:19:10;7.47;;;4.70;;
62788;SDS011;66401;42.016;21.454;2023-04-29T02:21:36;9.10;;;4.70;;
62788;SDS011;66401;42.016;21.454;2023-04-29T02:24:04;5.77;;;4.00;;
62788;SDS011;66401;42.016;21.454;2023-04-29T02:26:30;6.57;;;4.53;;
62788;SDS011;66401;42.016;21.454;2023-04-29T02:28:57;4.73;;;4.23;;
62788;SDS011;66401;42.016;21.454;2023-04-29T02:31:22;10.50;;;4.87;;
62788;SDS011;66401;42.016;21.454;2023-04-29T02:33:48;5.33;;;4.53;;
62788;SDS011;66401;42.016;21.454;2023-04-29T02:36:13;7.93;;;4.80;;
62788;SDS011;66401;42.016;21.454;2023-04-29T02:38:39;6.27;;;4.27;;
62788;SDS011;66401;42.016;21.454;2023-04-29T02:41:04;7.17;;;4.57;;
62788;SDS011;66401;42.016;21.454;2023-04-29T02:43:30;6.87;;;4.50;;
62788;SDS011;66401;42.016;21.454;2023-04-29T02:45:55;7.77;;;4.87;;
62788;SDS011;66401;42.016;21.454;2023-04-29T02:48:21;9.67;;;4.27;;
62788;SDS011;66401;42.016;21.454;2023-04-29T02:50:47;5.97;;;3.83;;
62788;SDS011;66401;42.016;21.454;2023-04-29T02:53:13;6.33;;;3.93;;
62788;SDS011;66401;42.016;21.454;2023-04-29T02:55:38;5.83;;;3.60;;
62788;SDS011;66401;42.016;21.454;2023-04-29T02:58:04;6.70;;;3.63;;
62788;SDS011;66401;42.016;21.454;2023-04-29T03:00:30;10.87;;;4.67;;
62788;SDS011;66401;42.016;21.454;2023-04-29T03:02:55;7.13;;;4.37;;
62788;SDS011;66401;42.016;21.454;2023-04-29T03:05:22;7.40;;;4.50;;
62788;SDS011;66401;42.016;21.454;2023-04-29T03:07:48;5.80;;;4.63;;
62788;SDS011;66401;42.016;21.454;2023-04-29T03:10:13;6.40;;;4.53;;
62788;SDS011;66401;42.016;21.454;2023-04-29T03:12:39;5.83;;;3.80;;
62788;SDS011;66401;42.016;21.454;2023-04-29T03:15:05;7.93;;;4.50;;
62788;SDS011;66401;42.016;21.454;2023-04-29T03:17:32;8.83;;;4.87;;
62788;SDS011;66401;42.016;21.454;2023-04-29T03:19:58;5.07;;;4.53;;
62788;SDS011;66401;42.016;21.454;2023-04-29T03:22:24;4.47;;;4.07;;
62788;SDS011;66401;42.016;21.454;2023-04-29T03:24:49;7.50;;;3.93;;
62788;SDS011;66401;42.016;21.454;2023-04-29T03:27:15;4.77;;;3.90;;
62788;SDS011;66401;42.016;21.454;2023-04-29T03:29:41;6.87;;;4.83;;
62788;SDS011;66401;42.016;21.454;2023-04-29T03:32:07;8.27;;;5.13;;
62788;SDS011;66401;42.016;21.454;2023-04-29T03:34:32;6.47;;;4.50;;
62788;SDS011;66401;42.016;21.454;2023-04-29T03:37:00;11.30;;;7.27;;
62788;SDS011;66401;42.016;21.454;2023-04-29T03:39:25;7.63;;;5.47;;
62788;SDS011;66401;42.016;21.454;2023-04-29T03:41:56;6.77;;;5.27;;
62788;SDS011;66401;42.016;21.454;2023-04-29T03:44:23;6.53;;;4.67;;
62788;SDS011;66401;42.016;21.454;2023-04-29T03:46:49;7.07;;;5.13;;
62788;SDS011;66401;42.016;21.454;2023-04-29T03:49:14;7.13;;;4.77;;
62788;SDS011;66401;42.016;21.454;2023-04-29T03:51:40;6.63;;;4.97;;
62788;SDS011;66401;42.016;21.454;2023-04-29T03:54:05;8.63;;;5.50;;
62788;SDS011;66401;42.016;21.454;2023-04-29T03:56:32;10.20;;;5.43;;
62788;SDS011;66401;42.016;21.454;2023-04-29T03:58:57;6.83;;;4.77;;
62788;SDS011;66401;42.016;21.454;2023-04-29T04:01:24;5.70;;;4.67;;
62788;SDS011;66401;42.016;21.454;2023-04-29T04:03:50;9.73;;;5.17;;
62788;SDS011;66401;42.016;21.454;2023-04-29T04:06:23;7.77;;;5.03;;
62788;SDS011;66401;42.016;21.454;2023-04-29T04:08:48;6.33;;;4.23;;
62788;SDS011;66401;42.016;21.454;2023-04-29T04:11:14;7.63;;;4.53;;
62788;SDS011;66401;42.016;21.454;2023-04-29T04:13:46;5.30;;;3.70;;
62788;SDS011;66401;42.016;21.454;2023-04-29T04:16:13;6.13;;;3.87;;
62788;SDS011;66401;42.016;21.454;2023-04-29T04:18:39;6.50;;;4.23;;
62788;SDS011;66401;42.016;21.454;2023-04-29T04:21:07;10.17;;;4.47;;
62788;SDS011;66401;42.016;21.454;2023-04-29T04:23:34;4.80;;;4.40;;
62788;SDS011;66401;42.016;21.454;2023-04-29T04:25:59;7.03;;;4.10;;
62788;SDS011;66401;42.016;21.454;2023-04-29T04:28:25;5.33;;;4.03;;
62788;SDS011;66401;42.016;21.454;2023-04-29T04:30:51;6.97;;;4.20;;
62788;SDS011;66401;42.016;21.454;2023-04-29T04:33:16;9.83;;;4.13;;
62788;SDS011;66401;42.016;21.454;2023-04-29T04:35:42;5.53;;;4.03;;
62788;SDS011;66401;42.016;21.454;2023-04-29T04:38:08;9.47;;;4.60;;
62788;SDS011;66401;42.016;21.454;2023-04-29T04:40:35;6.00;;;4.27;;
62788;SDS011;66401;42.016;21.454;2023-04-29T04:43:02;5.87;;;4.30;;
62788;SDS011;66401;42.016;21.454;2023-04-29T04:45:27;4.70;;;4.10;;
62788;SDS011;66401;42.016;21.454;2023-04-29T04:47:56;6.30;;;4.20;;
62788;SDS011;66401;42.016;21.454;2023-04-29T04:50:21;8.37;;;4.93;;
62788;SDS011;66401;42.016;21.454;2023-04-29T04:52:47;6.87;;;4.80;;
62788;SDS011;66401;42.016;21.454;2023-04-29T04:55:12;10.63;;;4.50;;
62788;SDS011;66401;42.016;21.454;2023-04-29T04:57:39;5.27;;;3.93;;
62788;SDS011;66401;42.016;21.454;2023-04-29T05:00:05;7.03;;;4.63;;
62788;SDS011;66401;42.016;21.454;2023-04-29T05:02:31;5.17;;;4.13;;
62788;SDS011;66401;42.016;21.454;2023-04-29T05:04:56;5.83;;;3.83;;
62788;SDS011;66401;42.016;21.454;2023-04-29T05:07:22;5.53;;;4.47;;
62788;SDS011;66401;42.016;21.454;2023-04-29T05:09:47;9.20;;;4.47;;
62788;SDS011;66401;42.016;21.454;2023-04-29T05:12:13;5.50;;;3.83;;
62788;SDS011;66401;42.016;21.454;2023-04-29T05:14:38;5.83;;;4.13;;
62788;SDS011;66401;42.016;21.454;2023-04-29T05:17:04;4.63;;;4.23;;
62788;SDS011;66401;42.016;21.454;2023-04-29T05:19:29;7.00;;;4.77;;
62788;SDS011;66401;42.016;21.454;2023-04-29T05:21:55;7.47;;;5.37;;
62788;SDS011;66401;42.016;21.454;2023-04-29T05:24:20;7.53;;;5.17;;
62788;SDS011;66401;42.016;21.454;2023-04-29T05:26:46;8.53;;;4.90;;
62788;SDS011;66401;42.016;21.454;2023-04-29T05:29:14;6.83;;;4.47;;
62788;SDS011;66401;42.016;21.454;2023-04-29T05:31:39;5.67;;;4.73;;
62788;SDS011;66401;42.016;21.454;2023-04-29T05:34:05;10.77;;;4.57;;
62788;SDS011;66401;42.016;21.454;2023-04-29T05:36:30;8.10;;;5.00;;
62788;SDS011;66401;42.016;21.454;2023-04-29T05:38:56;5.50;;;4.33;;
62788;SDS011;66401;42.016;21.454;2023-04-29T05:41:22;7.40;;;4.50;;
62788;SDS011;66401;42.016;21.454;2023-04-29T05:43:49;9.53;;;4.63;;
62788;SDS011;66401;42.016;21.454;2023-04-29T05:46:15;7.90;;;5.47;;
62788;SDS011;66401;42.016;21.454;2023-04-29T05:48:40;7.83;;;4.50;;
62788;SDS011;66401;42.016;21.454;2023-04-29T05:51:06;7.30;;;4.37;;
62788;SDS011;66401;42.016;21.454;2023-04-29T05:53:31;6.20;;;4.60;;
62788;SDS011;66401;42.016;21.454;2023-04-29T05:55:57;5.43;;;4.13;;
62788;SDS011;66401;42.016;21.454;2023-04-29T05:58:23;9.10;;;5.40;;
62788;SDS011;66401;42.016;21.454;2023-04-29T06:00:50;6.27;;;4.97;;
62788;SDS011;66401;42.016;21.454;2023-04-29T06:03:15;6.97;;;4.10;;
62788;SDS011;66401;42.016;21.454;2023-04-29T06:05:41;4.73;;;4.03;;
62788;SDS011;66401;42.016;21.454;2023-04-29T06:08:06;6.97;;;3.87;;
62788;SDS011;66401;42.016;21.454;2023-04-29T06:10:32;8.63;;;3.63;;
62788;SDS011;66401;42.016;21.454;2023-04-29T06:12:58;5.20;;;3.97;;
62788;SDS011;66401;42.016;21.454;2023-04-29T06:15:24;9.83;;;4.40;;
62788;SDS011;66401;42.016;21.454;2023-04-29T06:17:50;8.40;;;3.93;;
62788;SDS011;66401;42.016;21.454;2023-04-29T06:20:16;4.40;;;3.47;;
62788;SDS011;66401;42.016;21.454;2023-04-29T06:22:41;7.03;;;4.20;;
62788;SDS011;66401;42.016;21.454;2023-04-29T06:25:08;6.93;;;4.27;;
62788;SDS011;66401;42.016;21.454;2023-04-29T06:27:34;6.07;;;4.23;;
62788;SDS011;66401;42.016;21.454;2023-04-29T06:29:59;7.83;;;4.20;;
62788;SDS011;66401;42.016;21.454;2023-04-29T06:32:25;5.13;;;3.90;;
62788;SDS011;66401;42.016;21.454;2023-04-29T06:34:50;6.40;;;4.63;;
62788;SDS011;66401;42.016;21.454;2023-04-29T06:37:16;7.57;;;4.13;;
62788;SDS011;66401;42.016;21.454;2023-04-29T06:39:41;8.63;;;4.50;;
62788;SDS011;66401;42.016;21.454;2023-04-29T06:42:07;7.57;;;4.73;;
62788;SDS011;66401;42.016;21.454;2023-04-29T06:44:32;11.00;;;5.97;;
62788;SDS011;66401;42.016;21.454;2023-04-29T06:46:58;10.70;;;6.03;;
62788;SDS011;66401;42.016;21.454;2023-04-29T06:49:23;11.30;;;5.50;;
62788;SDS011;66401;42.016;21.454;2023-04-29T06:51:49;8.43;;;5.43;;
62788;SDS011;66401;42.016;21.454;2023-04-29T06:54:15;5.33;;;4.20;;
62788;SDS011;66401;42.016;21.454;2023-04-29T06:56:40;10.47;;;5.17;;
62788;SDS011;66401;42.016;21.454;2023-04-29T06:59:06;13.77;;;5.70;;
62788;SDS011;66401;42.016;21.454;2023-04-29T07:01:31;6.97;;;4.40;;
62788;SDS011;66401;42.016;21.454;2023-04-29T07:03:57;5.37;;;4.83;;
62788;SDS011;66401;42.016;21.454;2023-04-29T07:06:22;6.33;;;4.53;;
62788;SDS011;66401;42.016;21.454;2023-04-29T07:08:48;5.57;;;4.37;;
62788;SDS011;66401;42.016;21.454;2023-04-29T07:11:14;9.80;;;5.40;;
62788;SDS011;66401;42.016;21.454;2023-04-29T07:13:39;7.17;;;5.23;;
62788;SDS011;66401;42.016;21.454;2023-04-29T07:16:13;8.77;;;5.20;;
62788;SDS011;66401;42.016;21.454;2023-04-29T07:18:39;7.07;;;4.93;;
62788;SDS011;66401;42.016;21.454;2023-04-29T07:21:05;8.87;;;5.87;;
62788;SDS011;66401;42.016;21.454;2023-04-29T07:23:30;9.83;;;5.43;;
62788;SDS011;66401;42.016;21.454;2023-04-29T07:25:56;7.80;;;5.33;;
62788;SDS011;66401;42.016;21.454;2023-04-29T07:28:21;7.27;;;5.63;;
62788;SDS011;66401;42.016;21.454;2023-04-29T07:30:47;9.73;;;5.77;;
62788;SDS011;66401;42.016;21.454;2023-04-29T07:33:13;12.10;;;5.63;;
62788;SDS011;66401;42.016;21.454;2023-04-29T07:35:38;8.77;;;6.20;;
62788;SDS011;66401;42.016;21.454;2023-04-29T07:38:07;7.67;;;5.97;;
62788;SDS011;66401;42.016;21.454;2023-04-29T07:40:33;6.83;;;5.77;;
62788;SDS011;66401;42.016;21.454;2023-04-29T07:43:01;11.27;;;6.63;;
62788;SDS011;66401;42.016;21.454;2023-04-29T07:45:29;9.37;;;6.67;;
62788;SDS011;66401;42.016;21.454;2023-04-29T07:48:01;8.13;;;5.67;;
62788;SDS011;66401;42.016;21.454;2023-04-29T07:50:27;9.10;;;5.87;;
62788;SDS011;66401;42.016;21.454;2023-04-29T07:52:52;9.97;;;6.03;;
62788;SDS011;66401;42.016;21.454;2023-04-29T07:55:19;7.30;;;4.50;;
62788;SDS011;66401;42.016;21.454;2023-04-29T07:57:45;7.60;;;5.80;;
62788;SDS011;66401;42.016;21.454;2023-04-29T08:00:10;7.13;;;4.83;;
62788;SDS011;66401;42.016;21.454;2023-04-29T08:02:36;6.67;;;4.77;;
62788;SDS011;66401;42.016;21.454;2023-04-29T08:05:01;7.00;;;4.80;;
62788;SDS011;66401;42.016;21.454;2023-04-29T08:07:27;6.97;;;4.63;;
62788;SDS011;66401;42.016;21.454;2023-04-29T08:09:52;7.60;;;5.10;;
62788;SDS011;66401;42.016;21.454;2023-04-29T08:12:20;10.13;;;5.60;;
62788;SDS011;66401;42.016;21.454;2023-04-29T08:14:46;7.00;;;4.53;;
62788;SDS011;66401;42.016;21.454;2023-04-29T08:17:11;5.87;;;4.63;;
62788;SDS011;66401;42.016;21.454;2023-04-29T08:19:55;6.40;;;4.83;;
62788;SDS011;66401;42.016;21.454;2023-04-29T08:22:20;6.87;;;4.70;;
62788;SDS011;66401;42.016;21.454;2023-04-29T08:24:46;11.10;;;5.77;;
62788;SDS011;66401;42.016;21.454;2023-04-29T08:27:12;9.03;;;6.13;;
62788;SDS011;66401;42.016;21.454;2023-04-29T08:29:39;5.83;;;5.20;;
62788;SDS011;66401;42.016;21.454;2023-04-29T08:32:05;6.33;;;5.07;;
62788;SDS011;66401;42.016;21.454;2023-04-29T08:34:31;9.23;;;5.80;;
62788;SDS011;66401;42.016;21.454;2023-04-29T08:37:03;5.90;;;4.80;;
62788;SDS011;66401;42.016;21.454;2023-04-29T08:39:29;8.03;;;5.50;;
62788;SDS011;66401;42.016;21.454;2023-04-29T08:41:58;6.33;;;5.07;;
62788;SDS011;66401;42.016;21.454;2023-04-29T08:44:24;7.73;;;5.73;;
62788;SDS011;66401;42.016;21.454;2023-04-29T08:46:54;8.60;;;5.93;;
62788;SDS011;66401;42.016;21.454;2023-04-29T08:49:21;8.37;;;5.40;;
62788;SDS011;66401;42.016;21.454;2023-04-29T08:51:47;9.67;;;5.80;;
62788;SDS011;66401;42.016;21.454;2023-04-29T08:54:13;6.30;;;5.10;;
62788;SDS011;66401;42.016;21.454;2023-04-29T08:56:41;8.80;;;5.63;;
62788;SDS011;66401;42.016;21.454;2023-04-29T08:59:13;6.30;;;5.17;;
62788;SDS011;66401;42.016;21.454;2023-04-29T09:01:40;8.67;;;5.53;;
62788;SDS011;66401;42.016;21.454;2023-04-29T09:06:44;7.07;;;5.60;;
62788;SDS011;66401;42.016;21.454;2023-04-29T09:09:11;10.00;;;6.90;;
62788;SDS011;66401;42.016;21.454;2023-04-29T09:11:42;7.53;;;5.80;;
62788;SDS011;66401;42.016;21.454;2023-04-29T09:14:07;6.83;;;5.27;;
62788;SDS011;66401;42.016;21.454;2023-04-29T09:16:33;6.50;;;5.80;;
62788;SDS011;66401;42.016;21.454;2023-04-29T09:19:03;7.60;;;5.93;;
62788;SDS011;66401;42.016;21.454;2023-04-29T09:21:29;9.90;;;5.40;;
62788;SDS011;66401;42.016;21.454;2023-04-29T09:23:58;11.77;;;5.23;;
62788;SDS011;66401;42.016;21.454;2023-04-29T09:26:26;6.70;;;5.50;;
62788;SDS011;66401;42.016;21.454;2023-04-29T09:29:11;12.83;;;5.80;;
62788;SDS011;66401;42.016;21.454;2023-04-29T09:31:42;8.77;;;5.57;;
62788;SDS011;66401;42.016;21.454;2023-04-29T09:34:09;8.33;;;5.50;;
62788;SDS011;66401;42.016;21.454;2023-04-29T09:36:48;8.77;;;5.30;;
62788;SDS011;66401;42.016;21.454;2023-04-29T09:39:21;7.63;;;5.87;;
62788;SDS011;66401;42.016;21.454;2023-04-29T09:44:22;12.97;;;6.47;;
62788;SDS011;66401;42.016;21.454;2023-04-29T09:46:55;10.10;;;6.43;;
62788;SDS011;66401;42.016;21.454;2023-04-29T09:49:29;9.60;;;6.17;;
62788;SDS011;66401;42.016;21.454;2023-04-29T09:52:09;8.50;;;6.07;;
62788;SDS011;66401;42.016;21.454;2023-04-29T09:54:37;10.83;;;5.93;;
62788;SDS011;66401;42.016;21.454;2023-04-29T09:57:05;7.07;;;6.10;;
62788;SDS011;66401;42.016;21.454;2023-04-29T09:59:32;6.47;;;5.57;;
62788;SDS011;66401;42.016;21.454;2023-04-29T10:02:06;7.30;;;5.30;;
62788;SDS011;66401;42.016;21.454;2023-04-29T10:04:39;8.53;;;5.50;;
62788;SDS011;66401;42.016;21.454;2023-04-29T10:07:15;8.60;;;4.70;;
62788;SDS011;66401;42.016;21.454;2023-04-29T10:09:43;11.33;;;6.47;;
62788;SDS011;66401;42.016;21.454;2023-04-29T10:12:10;7.40;;;5.73;;
62788;SDS011;66401;42.016;21.454;2023-04-29T10:14:44;6.73;;;6.00;;
62788;SDS011;66401;42.016;21.454;2023-04-29T10:17:18;7.73;;;5.67;;
62788;SDS011;66401;42.016;21.454;2023-04-29T10:19:51;11.03;;;5.63;;
62788;SDS011;66401;42.016;21.454;2023-04-29T10:25:10;8.43;;;5.70;;
62788;SDS011;66401;42.016;21.454;2023-04-29T10:27:38;6.20;;;5.47;;
62788;SDS011;66401;42.016;21.454;2023-04-29T10:30:07;6.20;;;4.90;;
62788;SDS011;66401;42.016;21.454;2023-04-29T10:32:36;5.70;;;4.13;;
62788;SDS011;66401;42.016;21.454;2023-04-29T10:35:05;6.60;;;4.50;;
62788;SDS011;66401;42.016;21.454;2023-04-29T10:37:34;6.47;;;4.40;;
62788;SDS011;66401;42.016;21.454;2023-04-29T10:50:30;4.57;;;3.67;;
62788;SDS011;66401;42.016;21.454;2023-04-29T10:53:11;4.40;;;3.83;;
62788;SDS011;66401;42.016;21.454;2023-04-29T10:55:41;5.23;;;3.97;;
62788;SDS011;66401;42.016;21.454;2023-04-29T10:58:52;3.90;;;3.50;;
62788;SDS011;66401;42.016;21.454;2023-04-29T11:00:58;4.20;;;3.80;;
62788;SDS011;66401;42.016;21.454;2023-04-29T11:06:37;9.27;;;4.53;;
62788;SDS011;66401;42.016;21.454;2023-04-29T11:09:18;4.67;;;3.73;;
62788;SDS011;66401;42.016;21.454;2023-04-29T11:11:59;4.37;;;3.63;;
62788;SDS011;66401;42.016;21.454;2023-04-29T11:14:36;7.70;;;4.33;;
62788;SDS011;66401;42.016;21.454;2023-04-29T11:17:07;9.50;;;4.10;;
62788;SDS011;66401;42.016;21.454;2023-04-29T11:22:25;5.77;;;3.97;;
62788;SDS011;66401;42.016;21.454;2023-04-29T11:24:52;5.20;;;3.87;;
62788;SDS011;66401;42.016;21.454;2023-04-29T11:30:26;6.70;;;3.43;;
62788;SDS011;66401;42.016;21.454;2023-04-29T11:32:59;3.70;;;3.40;;
62788;SDS011;66401;42.016;21.454;2023-04-29T11:35:25;3.80;;;3.50;;
62788;SDS011;66401;42.016;21.454;2023-04-29T11:37:50;6.87;;;4.10;;
62788;SDS011;66401;42.016;21.454;2023-04-29T11:40:17;3.93;;;3.53;;
62788;SDS011;66401;42.016;21.454;2023-04-29T11:42:43;9.17;;;3.47;;
62788;SDS011;66401;42.016;21.454;2023-04-29T11:45:12;5.10;;;3.53;;
62788;SDS011;66401;42.016;21.454;2023-04-29T11:47:48;7.13;;;3.43;;
62788;SDS011;66401;42.016;21.454;2023-04-29T11:50:14;6.70;;;3.80;;
62788;SDS011;66401;42.016;21.454;2023-04-29T11:52:43;5.53;;;3.80;;
62788;SDS011;66401;42.016;21.454;2023-04-29T11:55:11;5.43;;;3.50;;
62788;SDS011;66401;42.016;21.454;2023-04-29T11:57:38;5.13;;;3.00;;
62788;SDS011;66401;42.016;21.454;2023-04-29T12:00:04;5.40;;;3.50;;
62788;SDS011;66401;42.016;21.454;2023-04-29T12:02:37;3.67;;;3.30;;
62788;SDS011;66401;42.016;21.454;2023-04-29T12:05:06;4.27;;;3.57;;
62788;SDS011;66401;42.016;21.454;2023-04-29T12:07:36;4.67;;;3.10;;
62788;SDS011;66401;42.016;21.454;2023-04-29T12:10:14;7.37;;;3.67;;
62788;SDS011;66401;42.016;21.454;2023-04-29T12:12:40;6.30;;;3.50;;
62788;SDS011;66401;42.016;21.454;2023-04-29T12:15:08;4.47;;;3.03;;
62788;SDS011;66401;42.016;21.454;2023-04-29T12:17:34;4.90;;;2.77;;
62788;SDS011;66401;42.016;21.454;2023-04-29T12:20:00;5.47;;;3.20;;
62788;SDS011;66401;42.016;21.454;2023-04-29T12:22:32;4.73;;;3.43;;
62788;SDS011;66401;42.016;21.454;2023-04-29T12:24:58;4.03;;;3.40;;
62788;SDS011;66401;42.016;21.454;2023-04-29T12:27:24;6.03;;;3.20;;
62788;SDS011;66401;42.016;21.454;2023-04-29T12:29:50;5.37;;;3.73;;
62788;SDS011;66401;42.016;21.454;2023-04-29T12:32:17;3.53;;;3.23;;
62788;SDS011;66401;42.016;21.454;2023-04-29T12:34:49;4.00;;;3.57;;
62788;SDS011;66401;42.016;21.454;2023-04-29T12:37:16;4.23;;;3.50;;
62788;SDS011;66401;42.016;21.454;2023-04-29T12:39:42;3.30;;;3.00;;
62788;SDS011;66401;42.016;21.454;2023-04-29T12:42:13;3.50;;;3.13;;
62788;SDS011;66401;42.016;21.454;2023-04-29T12:44:40;4.80;;;3.13;;
62788;SDS011;66401;42.016;21.454;2023-04-29T12:47:09;5.03;;;3.80;;
62788;SDS011;66401;42.016;21.454;2023-04-29T12:49:35;5.77;;;3.80;;
62788;SDS011;66401;42.016;21.454;2023-04-29T12:52:04;5.87;;;3.80;;
62788;SDS011;66401;42.016;21.454;2023-04-29T12:54:33;5.73;;;3.90;;
62788;SDS011;66401;42.016;21.454;2023-04-29T12:57:00;5.40;;;3.67;;
62788;SDS011;66401;42.016;21.454;2023-04-29T12:59:26;9.93;;;3.90;;
62788;SDS011;66401;42.016;21.454;2023-04-29T13:01:52;9.40;;;4.70;;
62788;SDS011;66401;42.016;21.454;2023-04-29T13:04:18;7.23;;;4.60;;
62788;SDS011;66401;42.016;21.454;2023-04-29T13:06:43;5.57;;;5.07;;
62788;SDS011;66401;42.016;21.454;2023-04-29T13:09:10;6.33;;;3.57;;
62788;SDS011;66401;42.016;21.454;2023-04-29T13:11:39;6.37;;;4.30;;
62788;SDS011;66401;42.016;21.454;2023-04-29T13:14:05;5.53;;;4.80;;
62788;SDS011;66401;42.016;21.454;2023-04-29T13:16:31;8.07;;;5.57;;
62788;SDS011;66401;42.016;21.454;2023-04-29T13:18:57;9.53;;;6.23;;
62788;SDS011;66401;42.016;21.454;2023-04-29T13:21:23;12.90;;;6.53;;
62788;SDS011;66401;42.016;21.454;2023-04-29T13:23:48;9.40;;;5.53;;
62788;SDS011;66401;42.016;21.454;2023-04-29T13:26:14;11.77;;;5.90;;
62788;SDS011;66401;42.016;21.454;2023-04-29T13:28:39;10.37;;;6.23;;
62788;SDS011;66401;42.016;21.454;2023-04-29T13:31:05;6.90;;;5.47;;
62788;SDS011;66401;42.016;21.454;2023-04-29T13:33:31;12.20;;;4.87;;
62788;SDS011;66401;42.016;21.454;2023-04-29T13:35:56;6.50;;;4.63;;
62788;SDS011;66401;42.016;21.454;2023-04-29T13:38:22;8.50;;;4.07;;
62788;SDS011;66401;42.016;21.454;2023-04-29T13:40:47;8.67;;;4.60;;
62788;SDS011;66401;42.016;21.454;2023-04-29T13:43:13;7.63;;;4.63;;
62788;SDS011;66401;42.016;21.454;2023-04-29T13:45:38;6.23;;;3.87;;
62788;SDS011;66401;42.016;21.454;2023-04-29T13:48:04;4.17;;;3.40;;
62788;SDS011;66401;42.016;21.454;2023-04-29T13:50:30;5.53;;;3.90;;
62788;SDS011;66401;42.016;21.454;2023-04-29T13:52:55;5.83;;;4.10;;
62788;SDS011;66401;42.016;21.454;2023-04-29T13:55:21;6.20;;;3.57;;
62788;SDS011;66401;42.016;21.454;2023-04-29T13:57:47;3.73;;;3.37;;
62788;SDS011;66401;42.016;21.454;2023-04-29T14:00:12;8.07;;;4.47;;
62788;SDS011;66401;42.016;21.454;2023-04-29T14:02:39;6.63;;;4.20;;
62788;SDS011;66401;42.016;21.454;2023-04-29T14:05:04;7.80;;;4.33;;
62788;SDS011;66401;42.016;21.454;2023-04-29T14:07:30;4.43;;;4.10;;
62788;SDS011;66401;42.016;21.454;2023-04-29T14:09:56;5.57;;;4.33;;
62788;SDS011;66401;42.016;21.454;2023-04-29T14:12:21;5.10;;;4.37;;
62788;SDS011;66401;42.016;21.454;2023-04-29T14:14:47;7.43;;;4.33;;
62788;SDS011;66401;42.016;21.454;2023-04-29T14:17:13;5.77;;;4.57;;
62788;SDS011;66401;42.016;21.454;2023-04-29T14:19:38;4.27;;;3.87;;
62788;SDS011;66401;42.016;21.454;2023-04-29T14:22:04;8.90;;;4.90;;
62788;SDS011;66401;42.016;21.454;2023-04-29T14:24:29;7.53;;;4.40;;
62788;SDS011;66401;42.016;21.454;2023-04-29T14:26:55;5.70;;;4.70;;
62788;SDS011;66401;42.016;21.454;2023-04-29T14:29:21;8.20;;;4.50;;
62788;SDS011;66401;42.016;21.454;2023-04-29T14:31:47;5.43;;;4.50;;
62788;SDS011;66401;42.016;21.454;2023-04-29T14:34:13;4.97;;;4.43;;
62788;SDS011;66401;42.016;21.454;2023-04-29T14:36:38;7.90;;;4.33;;
62788;SDS011;66401;42.016;21.454;2023-04-29T14:39:06;6.73;;;4.33;;
62788;SDS011;66401;42.016;21.454;2023-04-29T14:41:32;6.50;;;4.70;;
62788;SDS011;66401;42.016;21.454;2023-04-29T14:43:57;5.97;;;4.60;;
62788;SDS011;66401;42.016;21.454;2023-04-29T14:46:23;7.67;;;4.77;;
62788;SDS011;66401;42.016;21.454;2023-04-29T14:48:49;7.47;;;5.10;;
62788;SDS011;66401;42.016;21.454;2023-04-29T14:51:15;6.93;;;5.43;;
62788;SDS011;66401;42.016;21.454;2023-04-29T14:53:40;12.33;;;7.00;;
62788;SDS011;66401;42.016;21.454;2023-04-29T14:56:07;13.10;;;6.50;;
62788;SDS011;66401;42.016;21.454;2023-04-29T14:58:32;12.47;;;7.70;;
62788;SDS011;66401;42.016;21.454;2023-04-29T15:00:58;13.37;;;7.33;;
62788;SDS011;66401;42.016;21.454;2023-04-29T15:03:23;8.60;;;7.07;;
62788;SDS011;66401;42.016;21.454;2023-04-29T15:05:49;8.90;;;6.50;;
62788;SDS011;66401;42.016;21.454;2023-04-29T15:08:15;12.67;;;6.10;;
62788;SDS011;66401;42.016;21.454;2023-04-29T15:10:42;7.83;;;5.70;;